createdAt,value
2022-12-25T00:00:34.138Z,3.33
2022-12-25T00:03:16.801Z,3.50
2022-12-25T00:06:06.123Z,4.07
2022-12-25T00:08:48.407Z,3.65
2022-12-25T00:11:37.143Z,3.60
2022-12-25T00:14:19.059Z,3.15
2022-12-25T00:17:09.055Z,3.45
2022-12-25T00:19:51.718Z,2.88
2022-12-25T00:22:40.033Z,2.60
2022-12-25T00:25:22.155Z,3.63
2022-12-25T00:28:11.055Z,2.90
2022-12-25T00:31:00.064Z,2.88
2022-12-25T00:33:44.212Z,2.72
2022-12-25T00:36:39.479Z,2.53
2022-12-25T00:39:23.307Z,2.28
2022-12-25T00:42:27.047Z,2.58
2022-12-25T00:45:09.307Z,2.72
2022-12-25T00:47:58.115Z,2.90
2022-12-25T00:50:42.676Z,2.28
2022-12-25T00:53:31.134Z,1.77
2022-12-25T00:56:22.115Z,2.30
2022-12-25T00:59:04.319Z,2.22
2022-12-25T01:01:53.184Z,2.80
2022-12-25T01:04:34.998Z,2.15
2022-12-25T01:07:25.073Z,2.13
2022-12-25T01:10:30.845Z,2.05
2022-12-25T01:13:19.106Z,2.25
2022-12-25T01:16:01.110Z,2.63
2022-12-25T01:18:51.119Z,1.85
2022-12-25T01:21:40.090Z,1.90
2022-12-25T01:24:23.311Z,1.83
2022-12-25T01:27:12.048Z,1.35
2022-12-25T01:29:54.263Z,1.73
2022-12-25T01:32:42.056Z,1.42
2022-12-25T01:35:24.364Z,1.48
2022-12-25T01:38:13.053Z,1.30
2022-12-25T01:40:56.365Z,1.98
2022-12-25T01:44:01.095Z,1.33
2022-12-25T01:46:51.091Z,1.73
2022-12-25T01:49:35.831Z,1.55
2022-12-25T01:52:28.051Z,2.35
2022-12-25T01:55:11.815Z,1.85
2022-12-25T01:58:01.121Z,1.52
2022-12-25T02:00:56.194Z,1.05
2022-12-25T02:03:46.109Z,1.10
2022-12-25T02:06:30.742Z,1.20
2022-12-25T02:09:19.159Z,1.13
2022-12-25T02:12:00.466Z,1.20
2022-12-25T02:14:50.162Z,1.13
2022-12-25T02:17:46.073Z,1.13
2022-12-25T02:20:48.243Z,1.20
2022-12-25T02:24:19.080Z,0.88
2022-12-25T02:27:17.237Z,1.20
2022-12-25T02:30:14.151Z,1.38
2022-12-25T02:33:15.178Z,1.23
2022-12-25T02:36:07.104Z,1.20
2022-12-25T02:39:13.084Z,1.58
2022-12-25T02:42:04.183Z,1.10
2022-12-25T02:45:13.089Z,1.10
2022-12-25T02:48:13.813Z,1.00
2022-12-25T02:51:20.111Z,1.25
2022-12-25T02:54:21.682Z,1.10
2022-12-25T02:57:31.109Z,2.00
2022-12-25T03:00:32.166Z,0.90
2022-12-25T03:03:41.155Z,1.30
2022-12-25T03:06:40.715Z,1.40
2022-12-25T03:09:51.102Z,1.40
2022-12-25T03:12:54.301Z,1.15
2022-12-25T03:16:01.111Z,1.20
2022-12-25T03:18:51.086Z,1.13
2022-12-25T03:21:50.703Z,1.30
2022-12-25T03:24:58.192Z,1.35
2022-12-25T03:27:42.675Z,1.00
2022-12-25T03:30:47.230Z,1.52
2022-12-25T03:33:45.069Z,1.58
2022-12-25T03:36:43.090Z,1.30
2022-12-25T03:39:49.666Z,1.60
2022-12-25T03:42:58.181Z,1.40
2022-12-25T03:46:04.992Z,1.30
2022-12-25T03:49:15.125Z,1.33
2022-12-25T03:52:26.114Z,1.33
2022-12-25T03:55:29.176Z,1.45
2022-12-25T03:58:43.150Z,1.20
2022-12-25T04:01:55.244Z,2.10
2022-12-25T04:05:01.253Z,1.63
2022-12-25T04:08:02.324Z,1.80
2022-12-25T04:11:08.131Z,1.40
2022-12-25T04:14:14.113Z,1.63
2022-12-25T04:17:24.706Z,1.88
2022-12-25T04:20:29.143Z,2.67
2022-12-25T04:23:29.742Z,2.97
2022-12-25T04:26:35.277Z,2.80
2022-12-25T04:29:34.538Z,2.47
2022-12-25T04:32:39.132Z,2.08
2022-12-25T04:35:45.117Z,2.10
2022-12-25T04:38:28.303Z,2.03
2022-12-25T04:41:18.134Z,1.55
2022-12-25T04:43:59.314Z,1.83
2022-12-25T04:46:47.436Z,2.45
2022-12-25T04:49:29.301Z,2.97
2022-12-25T04:52:17.202Z,1.77
2022-12-25T04:55:00.278Z,2.33
2022-12-25T04:57:48.232Z,1.80
2022-12-25T05:00:30.375Z,2.47
2022-12-25T05:03:18.229Z,2.13
2022-12-25T05:05:59.393Z,2.30
2022-12-25T05:08:47.265Z,2.22
2022-12-25T05:11:30.391Z,2.30
2022-12-25T05:14:12.139Z,1.95
2022-12-25T05:17:00.158Z,2.03
2022-12-25T05:19:42.317Z,1.77
2022-12-25T05:22:30.171Z,2.78
2022-12-25T05:25:12.420Z,1.80
2022-12-25T05:28:02.202Z,2.72
2022-12-25T05:30:44.376Z,2.50
2022-12-25T05:33:33.158Z,2.97
2022-12-25T05:36:17.416Z,2.47
2022-12-25T05:39:06.149Z,2.60
2022-12-25T05:41:55.142Z,2.70
2022-12-25T05:44:38.474Z,2.42
2022-12-25T05:47:27.236Z,2.00
2022-12-25T05:50:10.080Z,2.17
2022-12-25T05:53:07.756Z,9.82
2022-12-25T05:55:50.178Z,2.92
2022-12-25T05:58:39.149Z,2.00
2022-12-25T06:01:38.247Z,1.95
2022-12-25T06:04:26.227Z,2.80
2022-12-25T06:07:14.158Z,2.45
2022-12-25T06:09:56.157Z,2.25
2022-12-25T06:12:44.175Z,2.20
2022-12-25T06:15:26.144Z,2.05
2022-12-25T06:18:16.251Z,1.70
2022-12-25T06:20:58.193Z,3.15
2022-12-25T06:23:46.257Z,1.92
2022-12-25T06:26:28.597Z,1.95
2022-12-25T06:29:16.214Z,2.05
2022-12-25T06:31:59.002Z,1.80
2022-12-25T06:34:49.180Z,1.63
2022-12-25T06:37:38.257Z,1.90
2022-12-25T06:40:20.385Z,1.60
2022-12-25T06:43:08.165Z,2.50
2022-12-25T06:45:51.227Z,1.63
2022-12-25T06:48:40.181Z,2.08
2022-12-25T06:51:23.402Z,1.70
2022-12-25T06:54:12.174Z,1.80
2022-12-25T06:56:53.369Z,2.63
2022-12-25T06:59:42.264Z,1.33
2022-12-25T07:02:38.316Z,1.92
2022-12-25T07:05:20.146Z,1.95
2022-12-25T07:08:10.255Z,1.92
2022-12-25T07:10:52.075Z,1.77
2022-12-25T07:13:41.206Z,1.67
2022-12-25T07:16:23.290Z,1.95
2022-12-25T07:19:14.221Z,1.90
2022-12-25T07:21:56.250Z,1.60
2022-12-25T07:24:46.214Z,2.03
2022-12-25T07:27:28.127Z,2.03
2022-12-25T07:30:16.192Z,1.90
2022-12-25T07:33:05.201Z,3.42
2022-12-25T07:35:46.441Z,1.88
2022-12-25T07:38:35.182Z,2.67
2022-12-25T07:41:19.386Z,2.50
2022-12-25T07:44:19.197Z,2.13
2022-12-25T07:47:00.542Z,2.55
2022-12-25T07:49:49.196Z,2.22
2022-12-25T07:52:31.485Z,2.30
2022-12-25T07:55:19.233Z,2.00
2022-12-25T07:58:09.219Z,2.30
2022-12-25T08:01:04.295Z,2.28
2022-12-25T08:03:57.357Z,3.08
2022-12-25T08:06:41.456Z,2.78
2022-12-25T08:09:30.195Z,3.70
2022-12-25T08:12:12.462Z,3.55
2022-12-25T08:15:02.186Z,3.25
2022-12-25T08:17:44.446Z,2.40
2022-12-25T08:20:32.303Z,2.97
2022-12-25T08:23:21.196Z,2.92
2022-12-25T08:26:05.407Z,2.53
2022-12-25T08:28:54.213Z,2.60
2022-12-25T08:31:44.028Z,1.98
2022-12-25T08:34:34.239Z,2.80
2022-12-25T08:37:16.169Z,3.85
2022-12-25T08:40:05.322Z,2.45
2022-12-25T08:42:47.371Z,14.75
2022-12-25T08:45:36.241Z,3.03
2022-12-25T08:48:26.242Z,2.47
2022-12-25T08:51:08.374Z,2.85
2022-12-25T08:53:58.226Z,3.95
2022-12-25T08:56:40.389Z,5.05
2022-12-25T08:59:29.269Z,3.22
2022-12-25T09:02:19.552Z,3.25
2022-12-25T09:05:02.275Z,3.45
2022-12-25T09:07:44.525Z,2.58
2022-12-25T09:10:33.282Z,2.42
2022-12-25T09:13:15.712Z,2.65
2022-12-25T09:16:04.261Z,2.90
2022-12-25T09:18:53.310Z,2.80
2022-12-25T09:21:36.919Z,2.92
2022-12-25T09:24:24.338Z,3.03
2022-12-25T09:27:05.531Z,3.67
2022-12-25T09:29:54.277Z,2.47
2022-12-25T09:32:35.465Z,2.67
2022-12-25T09:35:25.330Z,3.05
2022-12-25T09:38:08.401Z,2.70
2022-12-25T09:41:05.229Z,2.45
2022-12-25T09:44:00.245Z,3.20
2022-12-25T09:46:45.902Z,3.28
2022-12-25T09:49:36.231Z,2.45
2022-12-25T09:52:21.543Z,2.65
2022-12-25T09:55:19.743Z,3.00
2022-12-25T09:58:09.531Z,3.40
2022-12-25T10:01:02.279Z,5.00
2022-12-25T10:04:06.613Z,3.58
2022-12-25T10:06:58.328Z,2.60
2022-12-25T10:09:57.864Z,3.45
2022-12-25T10:12:59.362Z,3.83
2022-12-25T10:15:58.310Z,3.97
2022-12-25T10:19:03.509Z,3.40
2022-12-25T10:21:52.245Z,3.47
2022-12-25T10:24:41.846Z,3.45
2022-12-25T10:27:39.335Z,3.58
2022-12-25T10:30:27.536Z,3.03
2022-12-25T10:33:20.244Z,2.80
2022-12-25T10:36:02.494Z,3.50
2022-12-25T10:38:51.271Z,4.22
2022-12-25T10:41:52.280Z,3.88
2022-12-25T10:44:34.849Z,4.25
2022-12-25T10:47:24.351Z,5.18
2022-12-25T10:50:12.072Z,6.15
2022-12-25T10:53:11.242Z,5.75
2022-12-25T10:55:58.268Z,5.15
2022-12-25T10:58:48.578Z,5.13
2022-12-25T11:01:43.343Z,3.97
2022-12-25T11:04:36.371Z,4.28
2022-12-25T11:07:29.470Z,4.18
2022-12-25T11:10:28.327Z,4.70
2022-12-25T11:13:20.270Z,4.82
2022-12-25T11:16:06.140Z,5.43
2022-12-25T11:19:06.261Z,5.22
2022-12-25T11:21:53.914Z,4.10
2022-12-25T11:24:44.288Z,3.95
2022-12-25T11:27:29.094Z,3.78
2022-12-25T11:30:18.368Z,4.30
2022-12-25T11:33:03.929Z,4.18
2022-12-25T11:36:00.332Z,4.55
2022-12-25T11:38:43.495Z,4.45
2022-12-25T11:41:34.281Z,3.63
2022-12-25T11:44:34.295Z,3.17
2022-12-25T11:47:25.786Z,3.92
2022-12-25T11:50:24.289Z,5.55
2022-12-25T11:53:09.546Z,4.72
2022-12-25T11:56:02.268Z,4.68
2022-12-25T11:58:47.631Z,4.20
2022-12-25T12:01:41.373Z,3.35
2022-12-25T12:04:33.764Z,3.42
2022-12-25T12:07:30.312Z,11.02
2022-12-25T12:10:28.297Z,3.20
2022-12-25T12:13:27.160Z,3.35
2022-12-25T12:16:16.407Z,2.90
2022-12-25T12:18:58.655Z,3.53
2022-12-25T12:21:47.661Z,3.42
2022-12-25T12:24:34.512Z,2.85
2022-12-25T12:27:39.400Z,2.45
2022-12-25T12:30:28.052Z,3.03
2022-12-25T12:33:19.312Z,2.80
2022-12-25T12:36:03.079Z,3.63
2022-12-25T12:38:51.278Z,3.33
2022-12-25T12:41:52.312Z,4.72
2022-12-25T12:44:39.602Z,5.00
2022-12-25T12:47:45.362Z,11.35
2022-12-25T12:50:40.921Z,9.32
2022-12-25T12:53:37.356Z,8.25
2022-12-25T12:56:25.844Z,7.15
2022-12-25T12:59:17.309Z,8.77
2022-12-25T13:02:07.656Z,6.60
2022-12-25T13:05:02.314Z,8.02
2022-12-25T13:07:56.573Z,8.75
2022-12-25T13:10:47.486Z,8.48
2022-12-25T13:13:34.590Z,8.98
2022-12-25T13:16:30.387Z,9.18
2022-12-25T13:19:21.418Z,9.98
2022-12-25T13:22:06.639Z,8.57
2022-12-25T13:24:55.359Z,9.43
2022-12-25T13:27:37.425Z,9.43
2022-12-25T13:30:28.375Z,8.32
2022-12-25T13:33:19.594Z,6.95
2022-12-25T13:36:09.307Z,6.22
2022-12-25T13:38:55.155Z,7.43
2022-12-25T13:42:13.314Z,7.78
2022-12-25T13:45:03.356Z,6.82
2022-12-25T13:47:54.656Z,5.78
2022-12-25T13:50:44.350Z,4.95
2022-12-25T13:53:26.597Z,5.95
2022-12-25T13:56:22.400Z,5.45
2022-12-25T13:59:04.895Z,5.03
2022-12-25T14:01:54.451Z,7.15
2022-12-25T14:04:36.598Z,4.68
2022-12-25T14:07:29.407Z,6.15
2022-12-25T14:10:11.542Z,5.60
2022-12-25T14:13:04.415Z,5.90
2022-12-25T14:15:48.633Z,7.15
2022-12-25T14:18:38.345Z,7.00
2022-12-25T14:21:36.315Z,7.18
2022-12-25T14:24:27.119Z,10.65
2022-12-25T14:27:17.365Z,7.30
2022-12-25T14:30:01.742Z,15.43
2022-12-25T14:32:58.370Z,15.73
2022-12-25T14:35:40.213Z,13.20
2022-12-25T14:38:36.355Z,12.10
2022-12-25T14:41:39.334Z,7.38
2022-12-25T14:44:38.940Z,7.65
2022-12-25T14:47:28.381Z,7.10
2022-12-25T14:50:21.550Z,7.97
2022-12-25T14:53:10.432Z,10.27
2022-12-25T14:55:56.596Z,8.02
2022-12-25T14:58:50.347Z,8.63
2022-12-25T15:01:38.727Z,8.30
2022-12-25T15:04:30.450Z,9.50
2022-12-25T15:07:12.633Z,23.70
2022-12-25T15:13:03.572Z,7.03
2022-12-25T15:16:04.444Z,6.55
2022-12-25T15:18:56.382Z,8.20
2022-12-25T15:21:39.687Z,6.32
2022-12-25T15:27:15.250Z,6.53
2022-12-25T15:30:10.469Z,8.80
2022-12-25T15:32:52.341Z,7.95
2022-12-25T15:35:41.435Z,7.13
2022-12-25T15:38:25.373Z,7.70
2022-12-25T15:41:14.440Z,7.30
2022-12-25T15:43:56.426Z,8.32
2022-12-25T15:46:45.412Z,7.20
2022-12-25T15:49:40.387Z,8.32
2022-12-25T15:52:22.236Z,7.32
2022-12-25T15:55:13.458Z,10.27
2022-12-25T15:57:55.326Z,9.95
2022-12-25T16:00:43.433Z,23.13
2022-12-25T16:03:38.423Z,9.55
2022-12-25T16:06:27.367Z,9.32
2022-12-25T16:09:09.635Z,6.55
2022-12-25T16:11:59.392Z,7.80
2022-12-25T16:14:48.760Z,8.80
2022-12-25T16:17:30.328Z,7.20
2022-12-25T16:20:19.383Z,8.50
2022-12-25T16:23:01.342Z,7.10
2022-12-25T16:25:50.369Z,6.82
2022-12-25T16:28:33.777Z,6.85
2022-12-25T16:31:22.408Z,7.72
2022-12-25T16:34:05.097Z,11.77
2022-12-25T16:36:53.485Z,7.30
2022-12-25T16:39:35.377Z,7.55
2022-12-25T16:42:24.404Z,7.32
2022-12-25T16:45:15.453Z,7.05
2022-12-25T16:47:57.619Z,7.25
2022-12-25T16:50:46.375Z,26.08
2022-12-25T16:53:28.592Z,10.70
2022-12-25T16:56:19.461Z,7.95
2022-12-25T16:59:01.541Z,7.13
2022-12-25T17:01:51.534Z,7.30
2022-12-25T17:04:39.612Z,7.55
2022-12-25T17:07:22.442Z,7.65
2022-12-25T17:10:11.389Z,6.15
2022-12-25T17:12:52.571Z,6.65
2022-12-25T17:15:46.647Z,7.50
2022-12-25T17:18:32.577Z,8.20
2022-12-25T17:21:22.402Z,7.47
2022-12-25T17:24:04.655Z,6.93
2022-12-25T17:26:53.404Z,9.93
2022-12-25T17:29:34.599Z,30.52
2022-12-25T17:32:22.395Z,18.83
2022-12-25T17:35:05.580Z,15.27
2022-12-25T17:37:54.401Z,10.27
2022-12-25T17:40:42.403Z,6.93
2022-12-25T17:43:24.546Z,7.50
2022-12-25T17:46:17.557Z,6.25
2022-12-25T17:49:01.364Z,6.93
2022-12-25T17:51:51.531Z,6.72
2022-12-25T17:54:33.620Z,6.78
2022-12-25T17:57:21.437Z,7.88
2022-12-25T18:00:03.496Z,6.90
2022-12-25T18:02:54.581Z,7.43
2022-12-25T18:05:50.496Z,5.65
2022-12-25T18:08:39.339Z,6.35
2022-12-25T18:11:30.443Z,6.50
2022-12-25T18:14:14.985Z,7.65
2022-12-25T18:17:03.370Z,12.25
2022-12-25T18:19:45.344Z,12.00
2022-12-25T18:22:34.387Z,8.68
2022-12-25T18:25:17.636Z,5.88
2022-12-25T18:28:06.409Z,6.22
2022-12-25T18:30:48.879Z,5.65
2022-12-25T18:33:37.413Z,5.70
2022-12-25T18:36:27.488Z,5.32
2022-12-25T18:39:09.631Z,5.85
2022-12-25T18:42:18.449Z,8.10
2022-12-25T18:45:01.663Z,6.93
2022-12-25T18:47:49.487Z,5.38
2022-12-25T18:50:31.614Z,6.05
2022-12-25T18:53:19.487Z,6.00
2022-12-25T18:56:02.669Z,5.60
2022-12-25T18:58:52.448Z,5.82
2022-12-25T19:01:34.688Z,8.55
2022-12-25T19:04:23.492Z,8.23
2022-12-25T19:07:12.425Z,6.28
2022-12-25T19:09:54.335Z,6.30
2022-12-25T19:12:43.423Z,5.97
2022-12-25T19:15:26.859Z,10.73
2022-12-25T19:18:15.505Z,7.80
2022-12-25T19:20:57.505Z,7.90
2022-12-25T19:23:46.540Z,6.30
2022-12-25T19:26:28.364Z,7.57
2022-12-25T19:29:17.462Z,5.80
2022-12-25T19:32:07.509Z,6.47
2022-12-25T19:34:49.881Z,6.85
2022-12-25T19:37:37.449Z,7.70
2022-12-25T19:40:19.737Z,6.20
2022-12-25T19:43:08.460Z,11.93
2022-12-25T19:45:50.796Z,12.73
2022-12-25T19:48:40.428Z,9.45
2022-12-25T19:51:24.633Z,8.40
2022-12-25T19:54:14.446Z,7.25
2022-12-25T19:56:56.681Z,6.43
2022-12-25T19:59:45.441Z,6.90
2022-12-25T20:02:40.514Z,7.60
2022-12-25T20:05:23.850Z,8.18
2022-12-25T20:08:12.444Z,7.22
2022-12-25T20:10:54.415Z,6.40
2022-12-25T20:13:43.472Z,6.47
2022-12-25T20:16:25.885Z,6.93
2022-12-25T20:19:14.466Z,6.68
2022-12-25T20:21:58.795Z,6.57
2022-12-25T20:24:47.680Z,6.55
2022-12-25T20:27:42.435Z,6.32
2022-12-25T20:30:24.412Z,6.75
2022-12-25T20:33:12.519Z,6.38
2022-12-25T20:35:55.117Z,7.15
2022-12-25T20:38:45.448Z,6.68
2022-12-25T20:41:29.206Z,20.05
2022-12-25T20:44:19.482Z,20.95
2022-12-25T20:47:03.249Z,15.05
2022-12-25T20:49:50.468Z,13.45
2022-12-25T20:52:32.378Z,16.88
2022-12-25T20:55:22.599Z,7.30
2022-12-25T20:58:10.476Z,6.95
2022-12-25T21:00:52.774Z,10.82
2022-12-25T21:03:41.589Z,5.65
2022-12-25T21:06:24.754Z,6.28
2022-12-25T21:09:13.475Z,4.30
2022-12-25T21:11:56.647Z,4.50
2022-12-25T21:14:45.546Z,3.67
2022-12-25T21:17:27.640Z,4.75
2022-12-25T21:20:19.495Z,5.03
2022-12-25T21:23:07.464Z,4.20
2022-12-25T21:25:50.051Z,4.63
2022-12-25T21:28:39.477Z,4.22
2022-12-25T21:31:21.908Z,5.00
2022-12-25T21:34:09.494Z,5.30
2022-12-25T21:36:51.433Z,6.93
2022-12-25T21:39:39.491Z,8.27
2022-12-25T21:42:21.426Z,8.93
2022-12-25T21:45:11.479Z,13.07
2022-12-25T21:48:00.251Z,21.30
2022-12-25T21:51:08.484Z,15.02
2022-12-25T21:53:57.559Z,5.65
2022-12-25T21:56:44.445Z,7.90
2022-12-25T21:59:32.610Z,4.57
2022-12-25T22:02:16.783Z,4.30
2022-12-25T22:05:04.545Z,3.97
2022-12-25T22:07:44.685Z,5.45
2022-12-25T22:10:33.574Z,5.28
2022-12-25T22:13:34.364Z,8.38
2022-12-25T22:16:40.510Z,7.43
2022-12-25T22:19:48.656Z,6.05
2022-12-25T22:22:31.787Z,5.45
2022-12-25T22:25:20.550Z,5.53
2022-12-25T22:28:02.465Z,4.82
2022-12-25T22:30:51.476Z,5.82
2022-12-25T22:33:33.429Z,4.53
2022-12-25T22:36:24.573Z,13.20
2022-12-25T22:39:06.546Z,7.00
2022-12-25T22:41:54.527Z,7.95
2022-12-25T22:44:36.563Z,5.22
2022-12-25T22:47:24.495Z,4.85
2022-12-25T22:50:13.566Z,5.25
2022-12-25T22:52:56.788Z,5.20
2022-12-25T22:55:44.504Z,5.88
2022-12-25T22:58:25.739Z,5.38
2022-12-25T23:01:16.559Z,5.28
2022-12-25T23:04:04.825Z,5.25
2022-12-25T23:06:47.692Z,4.30
2022-12-25T23:09:31.909Z,5.00
2022-12-25T23:12:34.498Z,4.45
2022-12-25T23:15:16.703Z,5.68
2022-12-25T23:18:22.615Z,5.03
2022-12-25T23:21:29.522Z,3.90
2022-12-25T23:24:29.581Z,4.28
2022-12-25T23:27:19.548Z,4.13
2022-12-25T23:30:00.835Z,4.40
2022-12-25T23:32:50.613Z,3.92
2022-12-25T23:35:32.766Z,3.85
2022-12-25T23:38:21.523Z,5.65
2022-12-25T23:41:03.728Z,6.53
2022-12-25T23:43:53.519Z,3.83
2022-12-25T23:46:35.793Z,3.63
2022-12-25T23:49:23.606Z,4.22
2022-12-25T23:52:12.557Z,4.15
2022-12-25T23:54:54.468Z,3.42
2022-12-25T23:57:43.534Z,5.13
